Time;durP1;ratioP1;P1;durP2;ratioP2;P2;SDS_P1;SDS_P2;PMS_P1;PMS_P2;Temp;Humidity;BMP_temperature;BMP_pressure;BME280_temperature;BME280_humidity;BME280_pressure;Samples;Min_cycle;Max_cycle;Signal;HPM_P1;HPM_P2
2022/05/18 00:00:07;;;;;;;1.73;1.20;;;25.60;47.30;;;;;;5021392;28;20067;-65
2022/05/18 00:02:33;;;;;;;2.45;1.20;;;25.60;47.20;;;;;;5021447;28;20124;-61
2022/05/18 00:04:59;;;;;;;1.83;1.20;;;25.60;47.20;;;;;;5018759;28;20044;-64
2022/05/18 00:07:24;;;;;;;1.45;1.20;;;25.60;47.30;;;;;;5019547;28;20091;-66
2022/05/18 00:09:51;;;;;;;1.52;1.25;;;25.60;47.30;;;;;;5019172;28;20112;-66
2022/05/18 00:12:17;;;;;;;1.85;1.30;;;25.60;47.30;;;;;;5022035;28;20060;-66
2022/05/18 00:14:43;;;;;;;1.60;1.20;;;25.60;47.20;;;;;;5021318;28;20619;-63
2022/05/18 00:17:09;;;;;;;1.33;1.00;;;25.60;47.30;;;;;;5019581;28;20489;-65
2022/05/18 00:19:35;;;;;;;2.13;1.40;;;25.60;47.30;;;;;;5019472;28;20025;-65
2022/05/18 00:22:00;;;;;;;1.90;1.38;;;25.50;47.20;;;;;;5019861;28;20334;-64
2022/05/18 00:24:26;;;;;;;1.77;1.20;;;25.60;47.30;;;;;;5018185;28;20089;-64
2022/05/18 00:26:52;;;;;;;1.80;1.25;;;25.60;47.30;;;;;;5019873;28;20603;-65
2022/05/18 00:29:18;;;;;;;1.60;1.20;;;25.60;47.30;;;;;;5020694;28;20029;-61
2022/05/18 00:31:46;;;;;;;2.50;1.10;;;25.50;47.20;;;;;;5018745;28;20454;-65
2022/05/18 00:34:13;;;;;;;1.85;1.20;;;25.50;47.30;;;;;;5018720;28;20044;-65
2022/05/18 00:36:39;;;;;;;1.27;1.00;;;25.50;47.30;;;;;;5020009;28;20025;-66
2022/05/18 00:39:05;;;;;;;1.60;1.20;;;25.60;47.30;;;;;;5018503;28;20136;-65
2022/05/18 00:41:31;;;;;;;2.00;1.10;;;25.50;47.30;;;;;;5021484;28;20047;-65
2022/05/18 00:43:56;;;;;;;2.00;1.20;;;25.50;47.30;;;;;;5020742;28;20396;-66
2022/05/18 00:46:22;;;;;;;1.55;1.10;;;25.50;47.30;;;;;;5019806;28;20552;-62
2022/05/18 00:48:49;;;;;;;1.80;1.30;;;25.50;47.30;;;;;;5019579;28;20512;-66
2022/05/18 00:51:43;;;;;;;1.30;1.10;;;25.50;47.30;;;;;;5019808;28;20051;-65
2022/05/18 00:54:11;;;;;;;1.58;1.10;;;25.50;47.30;;;;;;5014893;28;20033;-61
2022/05/18 00:56:51;;;;;;;1.50;1.20;;;25.50;47.30;;;;;;5004544;28;20078;-64
2022/05/18 00:59:23;;;;;;;1.60;1.10;;;25.50;47.30;;;;;;5006698;28;20028;-65
2022/05/18 01:01:50;;;;;;;1.83;1.10;;;25.50;47.30;;;;;;5018825;28;20091;-62
2022/05/18 01:04:17;;;;;;;1.48;1.15;;;25.50;47.30;;;;;;5020485;28;20064;-65
2022/05/18 01:06:51;;;;;;;1.90;1.20;;;25.50;47.30;;;;;;5019404;28;20048;-65
2022/05/18 01:09:24;;;;;;;1.35;1.00;;;25.50;47.40;;;;;;5020465;28;20462;-65
2022/05/18 01:11:49;;;;;;;1.70;1.17;;;25.50;47.40;;;;;;5016087;28;20178;-65
2022/05/18 01:14:26;;;;;;;1.60;1.10;;;25.40;47.30;;;;;;5017527;28;20680;-61
2022/05/18 01:16:53;;;;;;;2.08;1.20;;;25.50;47.40;;;;;;5018566;28;20041;-65
2022/05/18 01:19:38;;;;;;;1.20;1.00;;;25.50;47.40;;;;;;5019364;28;20030;-62
2022/05/18 01:22:33;;;;;;;1.92;1.15;;;25.40;47.30;;;;;;5015213;28;20026;-65
2022/05/18 01:25:17;;;;;;;1.40;1.10;;;25.40;47.30;;;;;;5020865;28;20032;-64
2022/05/18 01:27:42;;;;;;;1.63;1.05;;;25.50;47.40;;;;;;5009811;28;20074;-66
2022/05/18 01:30:09;;;;;;;1.33;1.10;;;25.40;47.40;;;;;;5021726;28;20408;-64
2022/05/18 01:32:44;;;;;;;2.00;1.10;;;25.40;47.40;;;;;;5019085;28;20021;-62
2022/05/18 01:35:13;;;;;;;1.20;1.00;;;25.40;47.40;;;;;;5018633;28;20037;-65
2022/05/18 01:37:39;;;;;;;;;;;25.40;47.40;;;;;;5022805;28;20479;-65
2022/05/18 01:40:13;;;;;;;1.50;1.05;;;25.40;47.40;;;;;;5022321;28;19993;-65
2022/05/18 01:42:52;;;;;;;1.55;1.10;;;25.40;47.50;;;;;;5015316;28;20025;-65
2022/05/18 01:45:17;;;;;;;;;;;25.40;47.40;;;;;;5017111;28;20021;-62
2022/05/18 01:47:43;;;;;;;1.50;1.00;;;25.40;47.40;;;;;;5018188;28;20442;-65
2022/05/18 01:50:14;;;;;;;1.27;1.10;;;25.40;47.50;;;;;;5022702;28;20109;-65
2022/05/18 01:52:39;;;;;;;1.50;1.00;;;25.40;47.50;;;;;;5020135;28;20441;-65
2022/05/18 01:55:06;;;;;;;1.20;1.10;;;25.40;47.50;;;;;;5020227;28;20026;-65
2022/05/18 01:57:34;;;;;;;1.10;1.00;;;25.40;47.50;;;;;;5016241;28;20142;-65
2022/05/18 02:00:00;;;;;;;1.35;1.10;;;25.40;47.50;;;;;;5017124;28;20045;-61
2022/05/18 02:02:26;;;;;;;1.88;1.20;;;25.40;47.50;;;;;;5014123;28;20091;-65
2022/05/18 02:04:52;;;;;;;1.20;1.10;;;25.40;47.50;;;;;;5021250;28;20385;-66
2022/05/18 02:07:17;;;;;;;1.40;1.00;;;25.30;48.00;;;;;;5019650;28;20033;-65
2022/05/18 02:09:43;;;;;;;1.35;1.10;;;25.30;47.50;;;;;;5018705;28;20409;-64
2022/05/18 02:12:10;;;;;;;1.38;1.23;;;25.40;47.50;;;;;;5015281;28;20041;-65
2022/05/18 02:14:36;;;;;;;1.30;1.00;;;25.40;47.50;;;;;;5018206;28;20516;-66
2022/05/18 02:17:02;;;;;;;1.45;1.00;;;25.40;47.50;;;;;;5018663;28;20084;-66
2022/05/18 02:19:28;;;;;;;1.70;1.10;;;25.30;47.50;;;;;;5020895;28;20132;-65
2022/05/18 02:21:53;;;;;;;1.38;1.10;;;25.40;47.60;;;;;;5018816;28;20517;-65
2022/05/18 02:24:19;;;;;;;1.52;1.20;;;25.30;47.50;;;;;;5020216;28;20060;-66
2022/05/18 02:26:45;;;;;;;1.08;0.93;;;25.30;47.50;;;;;;5016329;28;20129;-66
2022/05/18 02:29:10;;;;;;;1.20;1.00;;;25.30;47.50;;;;;;5019514;28;20025;-64
2022/05/18 02:31:37;;;;;;;1.40;1.10;;;25.30;47.50;;;;;;5019267;28;20040;-65
2022/05/18 02:34:03;;;;;;;1.80;1.20;;;25.30;48.00;;;;;;5019649;28;20062;-66
2022/05/18 02:36:29;;;;;;;1.40;1.02;;;25.30;47.60;;;;;;5019942;28;20036;-66
2022/05/18 02:38:55;;;;;;;1.35;0.90;;;25.30;47.50;;;;;;5018417;28;20036;-64
2022/05/18 02:41:20;;;;;;;1.38;0.90;;;25.30;48.10;;;;;;5017008;28;20087;-65
2022/05/18 02:43:46;;;;;;;1.10;1.00;;;25.30;47.60;;;;;;5017940;28;20032;-61
2022/05/18 02:46:18;;;;;;;2.05;1.00;;;25.30;47.60;;;;;;5021740;28;20121;-65
2022/05/18 02:48:45;;;;;;;1.70;1.20;;;25.30;47.50;;;;;;5020128;28;20109;-65
2022/05/18 02:51:12;;;;;;;1.13;1.00;;;25.30;47.50;;;;;;5017012;28;20108;-65
2022/05/18 02:53:38;;;;;;;2.20;1.13;;;25.30;47.50;;;;;;5022960;28;20100;-65
2022/05/18 02:56:06;;;;;;;1.25;1.05;;;25.30;47.50;;;;;;5018550;28;20108;-65
2022/05/18 02:58:42;;;;;;;1.70;1.13;;;25.20;47.50;;;;;;5017116;28;20120;-62
2022/05/18 03:01:13;;;;;;;1.88;1.00;;;25.20;47.50;;;;;;5021322;28;20385;-61
2022/05/18 03:03:40;;;;;;;1.33;1.10;;;25.30;47.60;;;;;;5021186;28;20033;-65
2022/05/18 03:06:07;;;;;;;1.60;0.98;;;25.30;47.60;;;;;;5013541;28;20086;-62
2022/05/18 03:08:35;;;;;;;1.30;0.90;;;25.20;47.50;;;;;;5020498;28;20526;-65
2022/05/18 03:11:01;;;;;;;1.15;1.00;;;25.20;47.50;;;;;;5023288;28;20028;-64
2022/05/18 03:13:28;;;;;;;1.52;1.10;;;25.20;47.50;;;;;;5021156;28;20135;-65
2022/05/18 03:15:54;;;;;;;1.10;0.95;;;25.20;47.50;;;;;;5022451;28;20107;-65
2022/05/18 03:18:20;;;;;;;1.23;1.00;;;25.20;47.50;;;;;;5023664;28;20030;-64
2022/05/18 03:23:35;;;;;;;1.23;1.00;;;25.20;47.50;;;;;;5022747;28;20071;-66
2022/05/18 03:26:02;;;;;;;0.80;0.80;;;25.20;47.50;;;;;;5023045;28;20056;-61
2022/05/18 03:28:28;;;;;;;1.10;1.00;;;25.20;47.50;;;;;;5020838;28;20472;-66
2022/05/18 03:30:55;;;;;;;1.25;0.90;;;25.20;47.60;;;;;;5020647;28;20036;-62
2022/05/18 03:33:22;;;;;;;1.20;0.90;;;25.20;47.60;;;;;;5020625;28;20112;-66
2022/05/18 03:35:48;;;;;;;1.20;0.90;;;25.20;47.60;;;;;;5018767;28;20022;-65
2022/05/18 03:38:15;;;;;;;1.35;0.90;;;25.20;47.60;;;;;;5022517;28;20041;-64
2022/05/18 03:40:41;;;;;;;1.00;0.88;;;25.20;47.60;;;;;;5024086;28;20105;-65
2022/05/18 03:43:07;;;;;;;1.05;0.88;;;25.10;47.50;;;;;;5019786;28;20029;-61
2022/05/18 03:45:35;;;;;;;1.00;0.90;;;25.20;47.60;;;;;;5019836;28;20203;-65
2022/05/18 03:48:01;;;;;;;1.00;0.90;;;25.10;47.50;;;;;;5020984;28;20359;-65
2022/05/18 03:50:30;;;;;;;0.75;0.75;;;25.10;47.50;;;;;;5023026;28;20045;-66
2022/05/18 03:52:57;;;;;;;1.05;0.95;;;25.10;47.60;;;;;;5020856;28;20121;-65
2022/05/18 03:55:24;;;;;;;1.33;1.00;;;25.10;48.10;;;;;;5023778;28;20041;-65
2022/05/18 03:57:49;;;;;;;1.05;0.90;;;25.10;47.80;;;;;;5017828;28;20141;-63
2022/05/18 04:00:16;;;;;;;1.17;0.98;;;25.10;47.60;;;;;;5017987;28;20111;-65
2022/05/18 04:02:42;;;;;;;1.10;0.80;;;25.10;47.60;;;;;;5019981;28;20472;-64
2022/05/18 04:05:09;;;;;;;0.95;0.82;;;25.10;47.60;;;;;;5022874;28;20041;-61
2022/05/18 04:07:35;;;;;;;1.40;0.88;;;25.10;47.60;;;;;;5018251;28;20036;-63
2022/05/18 04:10:01;;;;;;;0.80;0.80;;;25.10;47.60;;;;;;5020698;28;20374;-65
2022/05/18 04:12:27;;;;;;;1.48;1.10;;;25.10;47.70;;;;;;4998791;28;20025;-65
2022/05/18 04:14:54;;;;;;;1.50;1.13;;;25.10;47.30;;;;;;5021656;28;20200;-62
2022/05/18 04:17:25;;;;;;;1.77;1.45;;;25.10;46.50;;;;;;5018997;28;20037;-64
2022/05/18 04:19:50;;;;;;;1.75;1.08;;;25.00;46.40;;;;;;5010617;28;20092;-64
2022/05/18 04:22:16;;;;;;;1.52;1.17;;;25.00;46.00;;;;;;5019734;28;20025;-65
2022/05/18 04:24:42;;;;;;;2.10;1.25;;;24.90;45.80;;;;;;5019835;28;20021;-65
2022/05/18 04:27:08;;;;;;;2.33;1.45;;;24.90;45.40;;;;;;5017458;28;20032;-64
2022/05/18 04:29:33;;;;;;;2.20;1.38;;;24.80;44.70;;;;;;5019145;28;20025;-65
2022/05/18 04:31:59;;;;;;;2.63;1.70;;;24.80;44.70;;;;;;5017515;28;20098;-61
2022/05/18 04:34:26;;;;;;;2.35;1.17;;;24.80;45.00;;;;;;5018959;28;20374;-64
2022/05/18 04:36:52;;;;;;;2.60;1.40;;;24.70;44.70;;;;;;5018836;28;20090;-61
2022/05/18 04:39:17;;;;;;;1.77;1.40;;;24.70;44.80;;;;;;5019542;28;20029;-65
2022/05/18 04:41:43;;;;;;;2.42;1.50;;;24.70;44.70;;;;;;5017382;28;20106;-65
2022/05/18 04:44:09;;;;;;;2.10;1.30;;;24.70;44.30;;;;;;5020614;28;20113;-65
2022/05/18 04:46:35;;;;;;;2.00;1.50;;;24.70;44.60;;;;;;5019993;28;20210;-63
2022/05/18 04:49:01;;;;;;;2.13;1.38;;;24.60;44.40;;;;;;5020999;28;20033;-61
2022/05/18 04:51:27;;;;;;;2.70;1.60;;;24.50;44.30;;;;;;5019859;28;20076;-64
2022/05/18 04:53:53;;;;;;;2.40;1.58;;;24.50;44.60;;;;;;5019758;28;20059;-64
2022/05/18 04:56:18;;;;;;;2.40;1.60;;;24.50;44.50;;;;;;5014896;28;20105;-65
2022/05/18 04:58:44;;;;;;;2.95;1.50;;;24.50;44.60;;;;;;5017592;28;20108;-64
2022/05/18 05:01:10;;;;;;;2.50;1.50;;;24.50;44.70;;;;;;5021227;28;20060;-64
2022/05/18 05:03:37;;;;;;;3.50;1.85;;;24.50;44.60;;;;;;5018331;28;20033;-64
2022/05/18 05:06:04;;;;;;;3.58;1.67;;;24.40;44.70;;;;;;5019092;28;20045;-64
2022/05/18 05:08:30;;;;;;;2.72;1.85;;;24.30;45.00;;;;;;5000617;28;20239;-65
2022/05/18 05:10:56;;;;;;;2.88;1.73;;;24.30;45.30;;;;;;5020573;28;20028;-65
2022/05/18 05:13:22;;;;;;;3.33;2.00;;;24.20;45.50;;;;;;5024669;28;20496;-65
2022/05/18 05:15:51;;;;;;;2.92;1.80;;;24.10;45.80;;;;;;5020299;28;20113;-65
2022/05/18 05:18:17;;;;;;;3.78;2.15;;;24.10;46.00;;;;;;5020342;28;20067;-66
2022/05/18 05:20:43;;;;;;;5.65;2.30;;;24.10;46.10;;;;;;5018679;28;20514;-65
2022/05/18 05:23:09;;;;;;;3.90;2.45;;;24.10;46.30;;;;;;5019164;28;20355;-65
2022/05/18 05:25:35;;;;;;;3.72;2.50;;;24.10;46.60;;;;;;5020417;28;20044;-65
2022/05/18 05:28:01;;;;;;;4.55;2.53;;;24.10;46.70;;;;;;5017280;28;20028;-64
2022/05/18 05:30:27;;;;;;;4.20;2.40;;;24.00;46.90;;;;;;5019212;28;20519;-66
2022/05/18 05:32:52;;;;;;;5.57;2.92;;;23.90;47.20;;;;;;5017066;28;20028;-61
2022/05/18 05:35:18;;;;;;;5.55;2.83;;;23.90;47.40;;;;;;5022940;28;20421;-65
2022/05/18 05:37:44;;;;;;;3.80;2.58;;;23.80;47.80;;;;;;5019155;28;20098;-65
2022/05/18 05:40:10;;;;;;;4.18;2.50;;;23.80;48.00;;;;;;5035354;28;20076;-65
2022/05/18 05:42:37;;;;;;;3.40;2.20;;;23.90;47.80;;;;;;5026809;28;20020;-64
2022/05/18 05:45:04;;;;;;;3.13;2.20;;;23.90;47.80;;;;;;5030115;28;20095;-65
2022/05/18 05:47:30;;;;;;;2.90;2.33;;;24.00;48.20;;;;;;5035520;28;20098;-66
2022/05/18 05:49:55;;;;;;;3.90;2.42;;;24.10;48.30;;;;;;5031245;28;20046;-65
2022/05/18 05:52:21;;;;;;;3.58;2.72;;;24.10;47.70;;;;;;5034801;28;20059;-65
2022/05/18 05:54:47;;;;;;;3.63;2.45;;;24.10;47.70;;;;;;5032718;28;20113;-61
2022/05/18 05:57:13;;;;;;;2.95;2.40;;;24.20;47.60;;;;;;5023415;28;20428;-65
2022/05/18 05:59:38;;;;;;;3.50;2.50;;;24.20;47.80;;;;;;5027395;28;20032;-65
2022/05/18 06:02:08;;;;;;;3.80;2.70;;;24.30;47.60;;;;;;5032199;28;20029;-64
2022/05/18 06:04:35;;;;;;;4.40;2.50;;;24.30;47.50;;;;;;5042421;28;20182;-63
2022/05/18 06:07:02;;;;;;;3.30;2.55;;;24.40;47.50;;;;;;5028575;28;20280;-62
2022/05/18 06:09:28;;;;;;;3.75;2.50;;;24.40;47.60;;;;;;5017224;28;20041;-65
2022/05/18 06:11:54;;;;;;;4.13;2.78;;;24.40;47.70;;;;;;5019642;28;20317;-64
2022/05/18 06:14:19;;;;;;;4.57;2.13;;;24.40;48.30;;;;;;5023671;28;20095;-65
2022/05/18 06:16:48;;;;;;;3.25;1.90;;;24.40;47.60;;;;;;5028438;28;20037;-65
2022/05/18 06:19:14;;;;;;;;;;;24.40;47.70;;;;;;5019982;28;20507;-62
2022/05/18 06:21:41;;;;;;;3.17;1.92;;;24.50;47.80;;;;;;5026005;28;20026;-64
2022/05/18 06:24:07;;;;;;;4.18;2.22;;;24.50;47.60;;;;;;5040277;28;20130;-65
2022/05/18 06:26:34;;;;;;;2.90;2.00;;;24.50;47.40;;;;;;5018807;28;20029;-61
2022/05/18 06:28:59;;;;;;;2.90;1.80;;;24.60;47.40;;;;;;5017616;28;20055;-65
2022/05/18 06:31:25;;;;;;;2.60;2.00;;;24.50;47.50;;;;;;5026286;28;20037;-65
2022/05/18 06:33:51;;;;;;;4.85;2.10;;;24.60;47.40;;;;;;5021828;28;20162;-65
2022/05/18 06:36:16;;;;;;;3.03;2.03;;;24.60;47.30;;;;;;5021772;28;20100;-65
2022/05/18 06:38:42;;;;;;;3.83;2.10;;;24.60;47.20;;;;;;5030481;28;20092;-65
2022/05/18 06:41:23;;;;;;;2.95;2.00;;;24.70;47.20;;;;;;5016892;28;20033;-65
2022/05/18 06:43:54;;;;;;;3.53;2.47;;;24.70;47.20;;;;;;5041786;28;20082;-66
2022/05/18 06:46:21;;;;;;;3.00;2.00;;;24.70;47.20;;;;;;5036512;28;20021;-65
2022/05/18 06:48:48;;;;;;;2.85;2.08;;;24.70;47.10;;;;;;5042889;28;20025;-65
2022/05/18 06:51:20;;;;;;;2.67;2.00;;;24.80;47.60;;;;;;5040011;28;20453;-64
2022/05/18 06:53:47;;;;;;;3.63;2.40;;;24.80;47.60;;;;;;5031441;28;20025;-64
2022/05/18 06:56:14;;;;;;;3.10;2.05;;;24.80;47.00;;;;;;5029481;28;20047;-66
2022/05/18 06:58:39;;;;;;;3.78;2.13;;;24.80;47.00;;;;;;5032126;28;20477;-65
2022/05/18 07:01:07;;;;;;;2.80;1.90;;;24.80;47.00;;;;;;5042286;28;20092;-65
2022/05/18 07:03:33;;;;;;;2.90;2.00;;;24.80;47.00;;;;;;5043395;28;20036;-66
2022/05/18 07:05:58;;;;;;;3.63;2.05;;;24.90;47.00;;;;;;5032122;28;20469;-65
2022/05/18 07:08:24;;;;;;;3.25;2.15;;;24.90;47.00;;;;;;5040257;28;20124;-66
2022/05/18 07:10:50;;;;;;;3.03;2.20;;;24.90;47.00;;;;;;5034079;28;20021;-65
2022/05/18 07:13:17;;;;;;;3.95;2.08;;;24.90;47.00;;;;;;5035449;28;20064;-64
2022/05/18 07:15:46;;;;;;;2.90;2.05;;;24.90;46.90;;;;;;5026236;28;20108;-66
2022/05/18 07:18:12;;;;;;;2.72;1.88;;;24.90;47.40;;;;;;5027072;28;20535;-65
2022/05/18 07:20:38;;;;;;;2.70;2.00;;;25.00;46.90;;;;;;5039313;28;20048;-64
2022/05/18 07:23:03;;;;;;;3.40;2.15;;;25.00;47.00;;;;;;5037849;28;20071;-61
2022/05/18 07:25:29;;;;;;;3.25;2.10;;;25.00;46.90;;;;;;5040350;28;20152;-66
2022/05/18 07:27:55;;;;;;;3.50;2.20;;;25.00;46.90;;;;;;5019573;28;20128;-64
2022/05/18 07:30:20;;;;;;;2.72;2.00;;;25.00;46.80;;;;;;5027769;28;20037;-66
2022/05/18 07:32:46;;;;;;;3.33;2.05;;;25.10;46.90;;;;;;5033473;28;20033;-64
2022/05/18 07:35:12;;;;;;;3.17;1.90;;;25.00;46.80;;;;;;5038769;28;20048;-65
2022/05/18 07:37:37;;;;;;;3.88;2.40;;;25.10;47.00;;;;;;5029738;28;20060;-64
2022/05/18 07:40:06;;;;;;;3.47;2.33;;;25.10;46.90;;;;;;5027955;28;20033;-64
2022/05/18 07:42:33;;;;;;;2.90;2.20;;;25.10;47.00;;;;;;5034502;28;20687;-65
2022/05/18 07:44:58;;;;;;;3.70;2.40;;;25.00;47.00;;;;;;5038494;28;20055;-66
2022/05/18 07:47:29;;;;;;;2.42;1.90;;;25.00;47.10;;;;;;5040303;28;20030;-66
2022/05/18 07:49:54;;;;;;;3.40;2.10;;;25.10;47.10;;;;;;5038492;28;20097;-66
2022/05/18 07:52:20;;;;;;;3.67;2.40;;;25.10;47.10;;;;;;5048629;28;20056;-64
2022/05/18 07:54:47;;;;;;;3.78;2.40;;;25.10;47.00;;;;;;5047809;28;20072;-65
2022/05/18 07:57:14;;;;;;;3.08;2.30;;;25.10;47.00;;;;;;5042788;28;20032;-65
2022/05/18 07:59:40;;;;;;;3.03;2.17;;;25.10;47.00;;;;;;5044052;28;20033;-65
2022/05/18 08:02:06;;;;;;;3.05;2.38;;;25.10;47.10;;;;;;5044342;28;20064;-65
2022/05/18 08:04:32;;;;;;;3.28;2.30;;;25.10;47.10;;;;;;5040897;28;20051;-66
2022/05/18 08:06:57;;;;;;;3.03;2.05;;;25.10;47.10;;;;;;5042515;28;20037;-66
2022/05/18 08:09:23;;;;;;;2.60;1.95;;;25.10;47.10;;;;;;5048028;28;20033;-66
2022/05/18 08:17:21;;;;;;;3.17;2.33;;;25.10;47.10;;;;;;5035729;28;20047;-66
2022/05/18 08:19:49;;;;;;;3.75;2.30;;;25.10;47.10;;;;;;5036122;28;20021;-66
2022/05/18 08:22:17;;;;;;;3.00;2.03;;;25.20;47.20;;;;;;5028540;28;20057;-65
2022/05/18 08:24:42;;;;;;;3.10;2.20;;;25.20;47.20;;;;;;5021093;28;20021;-62
2022/05/18 08:27:14;;;;;;;3.22;2.15;;;25.20;47.30;;;;;;5019267;28;20554;-66
2022/05/18 08:29:39;;;;;;;2.70;2.05;;;25.20;47.30;;;;;;5022052;28;20080;-65
2022/05/18 08:32:05;;;;;;;3.35;2.28;;;25.20;47.30;;;;;;5019031;28;20068;-65
2022/05/18 08:34:31;;;;;;;3.08;2.25;;;25.20;47.30;;;;;;5022303;28;20115;-65
2022/05/18 08:36:56;;;;;;;2.65;1.98;;;25.20;47.30;;;;;;5019509;28;20040;-65
2022/05/18 08:39:22;;;;;;;2.80;2.10;;;25.20;47.30;;;;;;5019519;28;20037;-65
2022/05/18 08:41:49;;;;;;;2.83;2.20;;;25.20;47.30;;;;;;5018485;28;20022;-65
2022/05/18 08:44:28;;;;;;;3.17;2.20;;;25.30;47.40;;;;;;5019461;28;20565;-66
2022/05/18 08:47:09;;;;;;;3.00;2.10;;;25.30;47.40;;;;;;5021898;28;20025;-63
2022/05/18 08:49:56;;;;;;;2.70;2.08;;;25.30;47.30;;;;;;5020233;28;20025;-65
2022/05/18 08:52:34;;;;;;;2.90;1.92;;;25.40;47.30;;;;;;5020496;28;20025;-64
2022/05/18 08:55:30;;;;;;;3.10;1.92;;;25.30;47.20;;;;;;5020540;28;20030;-65
2022/05/18 08:57:59;;;;;;;4.07;2.45;;;25.40;47.20;;;;;;5008731;28;20116;-64
2022/05/18 09:00:32;;;;;;;3.22;2.00;;;25.40;47.20;;;;;;5015903;28;20068;-66
2022/05/18 09:03:12;;;;;;;3.22;2.05;;;25.40;47.30;;;;;;5016279;28;20179;-67
2022/05/18 09:05:50;;;;;;;3.03;2.20;;;25.40;47.10;;;;;;5020518;28;20116;-65
2022/05/18 09:08:16;;;;;;;2.50;2.05;;;25.40;47.20;;;;;;5018191;28;20105;-67
2022/05/18 09:10:49;;;;;;;2.83;2.13;;;25.40;47.10;;;;;;5020572;28;20033;-66
2022/05/18 09:13:15;;;;;;;2.85;2.03;;;25.40;47.10;;;;;;5016316;28;20371;-67
2022/05/18 09:16:06;;;;;;;2.90;2.08;;;25.40;47.10;;;;;;5012322;28;20064;-66
2022/05/18 09:18:58;;;;;;;2.65;1.95;;;25.50;47.10;;;;;;5020182;28;20040;-65
2022/05/18 09:21:43;;;;;;;2.50;1.90;;;25.50;47.10;;;;;;5021861;28;20105;-65
2022/05/18 09:24:28;;;;;;;2.72;2.03;;;25.50;47.10;;;;;;5019309;28;20454;-65
2022/05/18 09:27:18;;;;;;;3.13;2.10;;;25.50;47.00;;;;;;5015980;28;20458;-65
2022/05/18 09:30:07;;;;;;;2.50;1.80;;;25.50;47.00;;;;;;5017102;28;20095;-62
2022/05/18 09:32:47;;;;;;;2.47;1.73;;;25.50;47.00;;;;;;5019347;28;20254;-65
2022/05/18 09:35:30;;;;;;;2.55;1.88;;;25.60;47.00;;;;;;5020668;28;20040;-65
2022/05/18 09:38:04;;;;;;;2.88;2.10;;;25.60;47.00;;;;;;5017218;28;20477;-65
2022/05/18 09:40:45;;;;;;;2.50;1.90;;;25.60;46.90;;;;;;5019041;28;20688;-65
2022/05/18 09:43:38;;;;;;;2.53;2.00;;;25.60;46.90;;;;;;5015271;28;20025;-66
2022/05/18 09:46:04;;;;;;;2.63;2.10;;;25.60;46.90;;;;;;5020074;28;20052;-64
2022/05/18 09:48:38;;;;;;;2.35;1.73;;;25.60;46.80;;;;;;5018401;28;20086;-66
2022/05/18 09:51:06;;;;;;;3.00;2.20;;;25.60;46.90;;;;;;5020595;28;20872;-62
2022/05/18 09:53:31;;;;;;;2.40;1.85;;;25.60;46.80;;;;;;5018311;28;20041;-63
2022/05/18 09:55:57;;;;;;;2.40;1.83;;;25.60;46.80;;;;;;5018245;28;20404;-67
2022/05/18 09:58:35;;;;;;;2.80;1.90;;;25.60;46.90;;;;;;5016079;28;20029;-65
2022/05/18 10:09:43;;;;;;;3.13;1.90;;;25.70;46.80;;;;;;5019421;28;20041;-65
2022/05/18 10:12:20;;;;;;;3.17;2.20;;;25.70;46.80;;;;;;5015964;28;20084;-64
2022/05/18 10:14:49;;;;;;;2.50;1.80;;;25.70;46.70;;;;;;5018355;28;20022;-62
2022/05/18 10:17:19;;;;;;;2.47;1.90;;;25.70;46.70;;;;;;5020326;28;20434;-66
2022/05/18 10:19:51;;;;;;;2.50;2.00;;;25.70;46.80;;;;;;5022927;28;20083;-67
2022/05/18 10:22:29;;;;;;;3.17;1.98;;;25.70;46.80;;;;;;5020831;28;20107;-65
2022/05/18 10:25:11;;;;;;;2.38;1.85;;;25.70;46.80;;;;;;5023689;28;20039;-66
2022/05/18 10:27:44;;;;;;;3.53;1.98;;;25.70;46.70;;;;;;5020551;28;20048;-65
2022/05/18 10:30:10;;;;;;;2.35;1.70;;;25.70;46.80;;;;;;5022662;28;20550;-62
2022/05/18 10:32:52;;;;;;;2.47;1.85;;;25.70;47.30;;;;;;5021803;28;20028;-65
2022/05/18 10:35:32;;;;;;;2.90;1.70;;;25.70;46.80;;;;;;5022621;28;20036;-66
2022/05/18 10:38:01;;;;;;;2.40;1.75;;;25.70;46.80;;;;;;5012540;28;20592;-63
2022/05/18 10:40:27;;;;;;;2.35;1.70;;;25.70;46.90;;;;;;5022354;28;20037;-61
2022/05/18 10:42:56;;;;;;;2.58;1.80;;;25.70;46.90;;;;;;5019434;28;20029;-66
2022/05/18 10:45:31;;;;;;;2.13;1.60;;;25.70;46.80;;;;;;5023213;28;20106;-66
2022/05/18 10:48:04;;;;;;;2.50;1.70;;;25.70;46.80;;;;;;5021704;28;20102;-65
2022/05/18 10:50:37;;;;;;;2.50;1.60;;;25.70;46.70;;;;;;5024105;28;20029;-64
2022/05/18 10:53:12;;;;;;;2.30;1.83;;;25.70;46.70;;;;;;5023243;28;20057;-66
2022/05/18 10:55:54;;;;;;;2.95;1.90;;;25.70;46.70;;;;;;5023829;28;20384;-65
2022/05/18 10:58:29;;;;;;;2.03;1.60;;;25.70;46.70;;;;;;5019839;28;20037;-62
2022/05/18 11:01:01;;;;;;;1.80;1.48;;;25.80;46.70;;;;;;5023188;28;20549;-63
2022/05/18 11:04:18;;;;;;;2.38;1.60;;;25.80;46.70;;;;;;5023620;28;20065;-65
2022/05/18 11:06:44;;;;;;;2.00;1.55;;;25.80;46.70;;;;;;5008215;28;20041;-62
2022/05/18 11:09:30;;;;;;;2.08;1.63;;;25.80;46.70;;;;;;5023337;28;20059;-62
2022/05/18 11:12:16;;;;;;;2.17;1.70;;;25.80;46.70;;;;;;5017650;28;20607;-65
2022/05/18 11:15:00;;;;;;;2.78;2.00;;;25.80;46.70;;;;;;5021784;28;20095;-62
2022/05/18 11:17:49;;;;;;;2.50;1.90;;;25.80;46.70;;;;;;5023117;28;20032;-65
2022/05/18 11:20:18;;;;;;;2.47;1.60;;;25.90;46.80;;;;;;5023123;28;20197;-64
2022/05/18 11:23:11;;;;;;;1.90;1.58;;;25.80;46.70;;;;;;5023109;28;20422;-64
2022/05/18 11:25:49;;;;;;;2.53;1.75;;;25.90;46.80;;;;;;5022277;28;20025;-64
2022/05/18 11:28:38;;;;;;;2.47;1.80;;;25.90;46.80;;;;;;5020270;28;20025;-61
2022/05/18 11:31:20;;;;;;;;;;;25.90;46.90;;;;;;5021855;28;20061;-64
2022/05/18 11:34:09;;;;;;;2.60;1.70;;;25.90;46.90;;;;;;5022825;28;19913;-66
2022/05/18 11:36:34;;;;;;;;;;;26.00;46.90;;;;;;5021289;28;20489;-65
2022/05/18 11:39:26;;;;;;;2.60;1.77;;;26.00;47.10;;;;;;5017536;28;19924;-64
2022/05/18 11:42:18;;;;;;;2.55;1.70;;;26.00;47.00;;;;;;5017673;28;20260;-65
2022/05/18 11:45:07;;;;;;;2.60;1.60;;;26.00;47.00;;;;;;4994377;28;20049;-64
2022/05/18 11:47:53;;;;;;;2.28;1.67;;;26.00;47.00;;;;;;5018686;28;20541;-64
2022/05/18 11:50:38;;;;;;;2.25;1.70;;;26.00;47.00;;;;;;5020861;28;20542;-65
2022/05/18 11:53:06;;;;;;;2.50;1.70;;;26.00;47.10;;;;;;5018971;28;20169;-63
2022/05/18 11:55:32;;;;;;;1.98;1.60;;;26.00;47.00;;;;;;5021089;28;20040;-66
2022/05/18 11:58:24;;;;;;;2.17;1.58;;;26.10;47.00;;;;;;5015074;28;20425;-63
2022/05/18 12:01:16;;;;;;;2.20;1.80;;;26.10;47.00;;;;;;5018018;28;20183;-61
2022/05/18 12:04:22;;;;;;;2.38;1.70;;;26.10;47.00;;;;;;5025645;28;20438;-63
2022/05/18 12:07:04;;;;;;;1.92;1.50;;;26.10;47.00;;;;;;5020688;28;20401;-65
2022/05/18 12:09:49;;;;;;;2.33;1.80;;;26.10;47.00;;;;;;5038667;28;20021;-64
2022/05/18 12:12:58;;;;;;;2.70;1.90;;;26.10;47.10;;;;;;5028151;28;20050;-63
2022/05/18 12:16:04;;;;;;;2.65;1.80;;;26.10;47.20;;;;;;5035613;28;20052;-63
2022/05/18 12:18:55;;;;;;;2.17;1.70;;;26.10;47.00;;;;;;5006084;28;20465;-64
2022/05/18 12:21:42;;;;;;;2.10;1.60;;;26.20;47.10;;;;;;5024710;28;20038;-62
2022/05/18 12:24:10;;;;;;;2.08;1.75;;;26.20;47.10;;;;;;5020963;28;20036;-65
2022/05/18 12:26:42;;;;;;;2.47;1.50;;;26.20;47.00;;;;;;5024995;28;20033;-66
2022/05/18 12:29:09;;;;;;;2.30;1.63;;;26.20;47.10;;;;;;5028330;28;20014;-63
2022/05/18 12:31:36;;;;;;;2.53;1.60;;;26.20;47.10;;;;;;5022323;28;20091;-65
2022/05/18 12:34:13;;;;;;;1.95;1.40;;;26.20;47.00;;;;;;5028977;28;20060;-63
2022/05/18 12:36:50;;;;;;;2.00;1.40;;;26.20;47.00;;;;;;5033573;28;20128;-64
2022/05/18 12:39:33;;;;;;;2.00;1.65;;;26.30;47.20;;;;;;5024066;28;20033;-64
2022/05/18 12:42:01;;;;;;;2.80;1.45;;;26.30;47.40;;;;;;5015250;28;20034;-64
2022/05/18 12:44:41;;;;;;;2.00;1.50;;;26.30;47.30;;;;;;5017832;28;20034;-64
2022/05/18 12:47:19;;;;;;;1.90;1.50;;;26.30;47.30;;;;;;5018985;28;20444;-63
2022/05/18 12:49:50;;;;;;;1.80;1.38;;;26.30;47.40;;;;;;5019639;28;20068;-64
2022/05/18 12:52:30;;;;;;;2.08;1.60;;;26.30;47.40;;;;;;5029425;28;20040;-62
2022/05/18 12:55:03;;;;;;;2.17;1.60;;;26.30;47.50;;;;;;5022705;28;20497;-60
2022/05/18 12:57:51;;;;;;;1.95;1.38;;;26.30;47.50;;;;;;5019161;28;20083;-60
2022/05/18 13:00:25;;;;;;;2.13;1.50;;;26.30;47.40;;;;;;5019684;28;20106;-62
2022/05/18 13:03:01;;;;;;;1.95;1.50;;;26.30;47.30;;;;;;5018358;28;20107;-65
2022/05/18 13:05:26;;;;;;;1.88;1.50;;;26.40;47.50;;;;;;5018949;28;20036;-64
2022/05/18 13:07:54;;;;;;;2.08;1.50;;;26.40;47.50;;;;;;5017639;28;20025;-63
2022/05/18 13:10:27;;;;;;;2.03;1.40;;;26.40;47.40;;;;;;4998069;28;20450;-61
2022/05/18 13:13:00;;;;;;;2.20;1.60;;;26.40;46.90;;;;;;5016380;28;20045;-62
2022/05/18 13:15:57;;;;;;;2.17;1.50;;;26.40;47.30;;;;;;5019712;28;20134;-62
2022/05/18 13:18:35;;;;;;;2.00;1.60;;;26.40;47.30;;;;;;5020116;28;20539;-64
2022/05/18 13:21:07;;;;;;;2.20;1.50;;;26.40;47.20;;;;;;5023146;28;20041;-65
2022/05/18 13:23:35;;;;;;;1.90;1.50;;;26.50;47.30;;;;;;5016726;28;20461;-64